sensor_id;sensor_type;location;lat;lon;timestamp;pressure;altitude;pressure_sealevel;temperature;humidity
48204;BME280;33994;50.998;5.864;2023-12-07T00:01:22;101478.44;;;1.35;100.00
48204;BME280;33994;50.998;5.864;2023-12-07T00:04:25;101489.47;;;1.31;100.00
48204;BME280;33994;50.998;5.864;2023-12-07T00:07:29;101501.44;;;1.29;100.00
48204;BME280;33994;50.998;5.864;2023-12-07T00:10:32;101497.06;;;1.27;100.00
48204;BME280;33994;50.998;5.864;2023-12-07T00:13:38;101496.94;;;1.24;100.00
48204;BME280;33994;50.998;5.864;2023-12-07T00:16:41;101489.06;;;1.19;100.00
48204;BME280;33994;50.998;5.864;2023-12-07T00:19:44;101493.34;;;1.18;100.00
48204;BME280;33994;50.998;5.864;2023-12-07T00:22:48;101492.41;;;1.16;100.00
48204;BME280;33994;50.998;5.864;2023-12-07T00:25:51;101484.56;;;1.13;100.00
48204;BME280;33994;50.998;5.864;2023-12-07T00:28:59;101488.09;;;1.15;100.00
48204;BME280;33994;50.998;5.864;2023-12-07T00:32:02;101488.09;;;1.15;100.00
48204;BME280;33994;50.998;5.864;2023-12-07T00:35:06;101488.91;;;1.14;100.00
48204;BME280;33994;50.998;5.864;2023-12-07T00:38:11;101482.81;;;1.12;100.00
48204;BME280;33994;50.998;5.864;2023-12-07T00:41:15;101490.50;;;1.11;100.00
48204;BME280;33994;50.998;5.864;2023-12-07T00:44:20;101487.06;;;1.10;100.00
48204;BME280;33994;50.998;5.864;2023-12-07T00:47:23;101496.53;;;1.11;100.00
48204;BME280;33994;50.998;5.864;2023-12-07T00:50:27;101490.50;;;1.11;100.00
48204;BME280;33994;50.998;5.864;2023-12-07T00:53:31;101495.66;;;1.11;100.00
48204;BME280;33994;50.998;5.864;2023-12-07T00:56:34;101491.25;;;1.08;100.00
48204;BME280;33994;50.998;5.864;2023-12-07T00:59:40;101482.72;;;1.09;100.00
48204;BME280;33994;50.998;5.864;2023-12-07T01:02:46;101493.00;;;1.09;100.00
48204;BME280;33994;50.998;5.864;2023-12-07T01:05:49;101491.25;;;1.08;100.00
48204;BME280;33994;50.998;5.864;2023-12-07T01:08:53;101493.81;;;1.07;100.00
48204;BME280;33994;50.998;5.864;2023-12-07T01:11:57;101501.41;;;1.04;100.00
48204;BME280;33994;50.998;5.864;2023-12-07T01:15:04;101504.00;;;1.04;100.00
48204;BME280;33994;50.998;5.864;2023-12-07T01:18:07;101513.53;;;1.06;100.00
48204;BME280;33994;50.998;5.864;2023-12-07T01:21:10;101510.13;;;1.07;100.00
48204;BME280;33994;50.998;5.864;2023-12-07T01:24:14;101513.63;;;1.09;100.00
48204;BME280;33994;50.998;5.864;2023-12-07T01:27:17;101515.47;;;1.13;100.00
48204;BME280;33994;50.998;5.864;2023-12-07T01:30:22;101522.47;;;1.17;100.00
48204;BME280;33994;50.998;5.864;2023-12-07T01:33:25;101522.56;;;1.19;100.00
48204;BME280;33994;50.998;5.864;2023-12-07T01:36:30;101525.34;;;1.25;100.00
48204;BME280;33994;50.998;5.864;2023-12-07T01:39:34;101525.34;;;1.25;100.00
48204;BME280;33994;50.998;5.864;2023-12-07T01:42:38;101519.31;;;1.25;100.00
48204;BME280;33994;50.998;5.864;2023-12-07T01:45:43;101529.59;;;1.25;100.00
48204;BME280;33994;50.998;5.864;2023-12-07T01:48:46;101527.75;;;1.20;100.00
48204;BME280;33994;50.998;5.864;2023-12-07T01:51:50;101526.94;;;1.22;100.00
48204;BME280;33994;50.998;5.864;2023-12-07T01:54:54;101521.69;;;1.18;100.00
48204;BME280;33994;50.998;5.864;2023-12-07T01:57:57;101516.47;;;1.17;100.00
48204;BME280;33994;50.998;5.864;2023-12-07T02:01:04;101520.81;;;1.18;100.00
48204;BME280;33994;50.998;5.864;2023-12-07T02:04:09;101513.09;;;1.18;100.00
48204;BME280;33994;50.998;5.864;2023-12-07T02:07:13;101520.84;;;1.19;100.00
48204;BME280;33994;50.998;5.864;2023-12-07T02:10:17;101524.25;;;1.18;100.00
48204;BME280;33994;50.998;5.864;2023-12-07T02:13:21;101520.97;;;1.23;100.00
48204;BME280;33994;50.998;5.864;2023-12-07T02:16:30;101521.81;;;1.22;100.00
48204;BME280;33994;50.998;5.864;2023-12-07T02:19:58;101520.97;;;1.23;100.00
48204;BME280;33994;50.998;5.864;2023-12-07T02:23:21;101521.81;;;1.22;100.00
48204;BME280;33994;50.998;5.864;2023-12-07T02:26:33;101526.13;;;1.23;100.00
48204;BME280;33994;50.998;5.864;2023-12-07T02:29:36;101521.94;;;1.26;100.00
48204;BME280;33994;50.998;5.864;2023-12-07T02:32:40;101525.56;;;1.31;100.00
48204;BME280;33994;50.998;5.864;2023-12-07T02:35:48;101541.13;;;1.34;100.00
48204;BME280;33994;50.998;5.864;2023-12-07T02:38:51;101532.56;;;1.35;100.00
48204;BME280;33994;50.998;5.864;2023-12-07T02:42:04;101544.53;;;1.33;100.00
48204;BME280;33994;50.998;5.864;2023-12-07T02:45:09;101536.00;;;1.36;100.00
48204;BME280;33994;50.998;5.864;2023-12-07T02:48:12;101542.94;;;1.37;100.00
48204;BME280;33994;50.998;5.864;2023-12-07T02:51:16;101542.09;;;1.38;100.00
48204;BME280;33994;50.998;5.864;2023-12-07T02:54:19;101527.56;;;1.40;100.00
48204;BME280;33994;50.998;5.864;2023-12-07T02:57:24;101525.03;;;1.41;100.00
48204;BME280;33994;50.998;5.864;2023-12-07T03:00:27;101517.34;;;1.43;100.00
48204;BME280;33994;50.998;5.864;2023-12-07T03:03:30;101506.19;;;1.44;100.00
48204;BME280;33994;50.998;5.864;2023-12-07T03:06:33;101505.50;;;1.48;100.00
48204;BME280;33994;50.998;5.864;2023-12-07T03:09:36;101514.16;;;1.50;100.00
48204;BME280;33994;50.998;5.864;2023-12-07T03:12:41;101501.25;;;1.50;100.00
48204;BME280;33994;50.998;5.864;2023-12-07T03:15:45;101502.25;;;1.54;100.00
48204;BME280;33994;50.998;5.864;2023-12-07T03:18:49;101504.31;;;1.64;100.00
48204;BME280;33994;50.998;5.864;2023-12-07T03:21:52;101501.03;;;1.69;100.00
48204;BME280;33994;50.998;5.864;2023-12-07T03:24:55;101499.22;;;1.67;100.00
48204;BME280;33994;50.998;5.864;2023-12-07T03:28:04;101506.91;;;1.65;100.00
48204;BME280;33994;50.998;5.864;2023-12-07T03:31:09;101506.91;;;1.65;100.00
48204;BME280;33994;50.998;5.864;2023-12-07T03:34:12;101508.63;;;1.65;100.00
48204;BME280;33994;50.998;5.864;2023-12-07T03:37:16;101513.63;;;1.60;100.00
48204;BME280;33994;50.998;5.864;2023-12-07T03:40:19;101505.75;;;1.56;100.00
48204;BME280;33994;50.998;5.864;2023-12-07T03:43:25;101510.84;;;1.54;100.00
48204;BME280;33994;50.998;5.864;2023-12-07T03:46:29;101513.41;;;1.54;100.00
48204;BME280;33994;50.998;5.864;2023-12-07T03:49:32;101507.28;;;1.51;100.00
48204;BME280;33994;50.998;5.864;2023-12-07T03:52:36;101503.06;;;1.53;100.00
48204;BME280;33994;50.998;5.864;2023-12-07T03:55:41;101503.00;;;1.51;100.00
48204;BME280;33994;50.998;5.864;2023-12-07T03:58:45;101507.28;;;1.51;100.00
48204;BME280;33994;50.998;5.864;2023-12-07T04:01:51;101510.75;;;1.51;100.00
48204;BME280;33994;50.998;5.864;2023-12-07T04:04:55;101512.44;;;1.51;100.00
48204;BME280;33994;50.998;5.864;2023-12-07T04:08:00;101514.19;;;1.52;100.00
48204;BME280;33994;50.998;5.864;2023-12-07T04:11:03;101522.00;;;1.53;100.00
48204;BME280;33994;50.998;5.864;2023-12-07T04:14:08;101527.16;;;1.53;100.00
48204;BME280;33994;50.998;5.864;2023-12-07T04:17:12;101523.72;;;1.54;100.00
48204;BME280;33994;50.998;5.864;2023-12-07T04:20:15;101523.84;;;1.57;100.00
48204;BME280;33994;50.998;5.864;2023-12-07T04:23:19;101528.97;;;1.56;100.00
48204;BME280;33994;50.998;5.864;2023-12-07T04:26:22;101525.47;;;1.55;100.00
48204;BME280;33994;50.998;5.864;2023-12-07T04:29:28;101525.47;;;1.55;100.00
48204;BME280;33994;50.998;5.864;2023-12-07T04:32:31;101530.63;;;1.55;100.00
48204;BME280;33994;50.998;5.864;2023-12-07T04:35:35;101535.78;;;1.55;100.00
48204;BME280;33994;50.998;5.864;2023-12-07T04:38:39;101541.84;;;1.56;100.00
48204;BME280;33994;50.998;5.864;2023-12-07T04:41:42;101551.34;;;1.57;100.00
48204;BME280;33994;50.998;5.864;2023-12-07T04:44:48;101558.19;;;1.56;100.00
48204;BME280;33994;50.998;5.864;2023-12-07T04:47:51;101562.63;;;1.60;100.00
48204;BME280;33994;50.998;5.864;2023-12-07T04:50:55;101558.38;;;1.62;100.00
48204;BME280;33994;50.998;5.864;2023-12-07T04:53:59;101554.16;;;1.64;100.00
48204;BME280;33994;50.998;5.864;2023-12-07T04:57:02;101552.44;;;1.63;100.00
48204;BME280;33994;50.998;5.864;2023-12-07T05:00:09;101555.03;;;1.65;100.00
48204;BME280;33994;50.998;5.864;2023-12-07T05:03:12;101549.84;;;1.63;100.00
48204;BME280;33994;50.998;5.864;2023-12-07T05:06:15;101543.06;;;1.67;100.00
48204;BME280;33994;50.998;5.864;2023-12-07T05:09:18;101537.97;;;1.68;100.00
48204;BME280;33994;50.998;5.864;2023-12-07T05:12:21;101539.72;;;1.69;100.00
48204;BME280;33994;50.998;5.864;2023-12-07T05:15:26;101539.81;;;1.73;100.00
48204;BME280;33994;50.998;5.864;2023-12-07T05:18:29;101546.72;;;1.74;100.00
48204;BME280;33994;50.998;5.864;2023-12-07T05:21:35;101542.41;;;1.73;100.00
48204;BME280;33994;50.998;5.864;2023-12-07T05:24:38;101543.22;;;1.72;100.00
48204;BME280;33994;50.998;5.864;2023-12-07T05:27:42;101543.38;;;1.76;100.00
48204;BME280;33994;50.998;5.864;2023-12-07T05:30:47;101527.78;;;1.73;100.00
48204;BME280;33994;50.998;5.864;2023-12-07T05:33:50;101527.06;;;1.77;100.00
48204;BME280;33994;50.998;5.864;2023-12-07T05:36:54;101519.31;;;1.77;100.00
48204;BME280;33994;50.998;5.864;2023-12-07T05:39:57;101517.50;;;1.75;100.00
48204;BME280;33994;50.998;5.864;2023-12-07T05:42:59;101519.19;;;1.73;100.00
48204;BME280;33994;50.998;5.864;2023-12-07T05:46:04;101515.78;;;1.74;100.00
48204;BME280;33994;50.998;5.864;2023-12-07T05:49:07;101511.31;;;1.68;100.00
48204;BME280;33994;50.998;5.864;2023-12-07T05:52:11;101516.47;;;1.68;100.00
48204;BME280;33994;50.998;5.864;2023-12-07T05:55:15;101516.34;;;1.65;100.00
48204;BME280;33994;50.998;5.864;2023-12-07T05:58:18;101511.09;;;1.62;100.00
48204;BME280;33994;50.998;5.864;2023-12-07T06:01:23;101504.97;;;1.58;100.00
48204;BME280;33994;50.998;5.864;2023-12-07T06:04:26;101505.78;;;1.57;100.00
48204;BME280;33994;50.998;5.864;2023-12-07T06:07:31;101504.84;;;1.55;100.00
48204;BME280;33994;50.998;5.864;2023-12-07T06:10:34;101507.50;;;1.57;100.00
48204;BME280;33994;50.998;5.864;2023-12-07T06:13:39;101495.44;;;1.56;100.00
48204;BME280;33994;50.998;5.864;2023-12-07T06:16:45;101491.94;;;1.54;100.00
48204;BME280;33994;50.998;5.864;2023-12-07T06:19:48;101497.09;;;1.54;100.00
48204;BME280;33994;50.998;5.864;2023-12-07T06:22:51;101491.06;;;1.53;100.00
48204;BME280;33994;50.998;5.864;2023-12-07T06:25:57;101497.09;;;1.54;100.00
48204;BME280;33994;50.998;5.864;2023-12-07T06:29:00;101486.66;;;1.51;100.00
48204;BME280;33994;50.998;5.864;2023-12-07T06:32:05;101485.69;;;1.47;100.00
48204;BME280;33994;50.998;5.864;2023-12-07T06:35:11;101489.09;;;1.46;100.00
48204;BME280;33994;50.998;5.864;2023-12-07T06:38:14;101488.09;;;1.41;100.00
48204;BME280;33994;50.998;5.864;2023-12-07T06:41:18;101487.03;;;1.36;100.00
48204;BME280;33994;50.998;5.864;2023-12-07T06:44:21;101490.41;;;1.33;100.00
48204;BME280;33994;50.998;5.864;2023-12-07T06:47:26;101485.91;;;1.28;100.00
48204;BME280;33994;50.998;5.864;2023-12-07T06:50:30;101484.00;;;1.22;100.00
48204;BME280;33994;50.998;5.864;2023-12-07T06:53:33;101479.63;;;1.19;100.00
48204;BME280;33994;50.998;5.864;2023-12-07T06:56:37;101482.06;;;1.15;100.00
48204;BME280;33994;50.998;5.864;2023-12-07T06:59:41;101475.03;;;1.11;100.00
48204;BME280;33994;50.998;5.864;2023-12-07T07:02:47;101475.78;;;1.07;100.00
48204;BME280;33994;50.998;5.864;2023-12-07T07:05:50;101475.66;;;1.04;100.00
48204;BME280;33994;50.998;5.864;2023-12-07T07:08:53;101481.53;;;1.00;100.00
48204;BME280;33994;50.998;5.864;2023-12-07T07:11:56;101478.88;;;0.98;100.00
48204;BME280;33994;50.998;5.864;2023-12-07T07:15:00;101467.66;;;0.96;100.00
48204;BME280;33994;50.998;5.864;2023-12-07T07:18:09;101477.09;;;0.95;100.00
48204;BME280;33994;50.998;5.864;2023-12-07T07:21:12;101480.44;;;0.93;100.00
48204;BME280;33994;50.998;5.864;2023-12-07T07:24:15;101475.25;;;0.91;100.00
48204;BME280;33994;50.998;5.864;2023-12-07T07:27:19;101487.25;;;0.91;100.00
48204;BME280;33994;50.998;5.864;2023-12-07T07:30:22;101486.34;;;0.90;100.00
48204;BME280;33994;50.998;5.864;2023-12-07T07:33:26;101488.06;;;0.90;100.00
48204;BME280;33994;50.998;5.864;2023-12-07T07:36:30;101494.91;;;0.89;100.00
48204;BME280;33994;50.998;5.864;2023-12-07T07:39:35;101499.19;;;0.89;100.00
48204;BME280;33994;50.998;5.864;2023-12-07T07:42:38;101494.03;;;0.89;100.00
48204;BME280;33994;50.998;5.864;2023-12-07T07:45:42;101493.16;;;0.88;100.00
48204;BME280;33994;50.998;5.864;2023-12-07T07:48:47;101496.50;;;0.86;100.00
48204;BME280;33994;50.998;5.864;2023-12-07T07:51:51;101498.25;;;0.87;100.00
48204;BME280;33994;50.998;5.864;2023-12-07T07:54:55;101493.09;;;0.87;100.00
48204;BME280;33994;50.998;5.864;2023-12-07T07:57:58;101487.06;;;0.86;100.00
48204;BME280;33994;50.998;5.864;2023-12-07T08:01:02;101485.34;;;0.87;100.00
48204;BME280;33994;50.998;5.864;2023-12-07T08:04:07;101480.13;;;0.84;100.00
48204;BME280;33994;50.998;5.864;2023-12-07T08:07:12;101481.72;;;0.80;100.00
48204;BME280;33994;50.998;5.864;2023-12-07T08:10:15;101489.38;;;0.79;100.00
48204;BME280;33994;50.998;5.864;2023-12-07T08:13:18;101489.31;;;0.77;100.00
48204;BME280;33994;50.998;5.864;2023-12-07T08:16:22;101487.59;;;0.76;100.00
48204;BME280;33994;50.998;5.864;2023-12-07T08:19:27;101476.41;;;0.76;100.00
48204;BME280;33994;50.998;5.864;2023-12-07T08:22:30;101484.03;;;0.73;100.00
48204;BME280;33994;50.998;5.864;2023-12-07T08:25:33;101479.66;;;0.71;100.00
48204;BME280;33994;50.998;5.864;2023-12-07T08:28:36;101476.19;;;0.69;100.00
48204;BME280;33994;50.998;5.864;2023-12-07T08:31:40;101480.34;;;0.66;100.00
48204;BME280;33994;50.998;5.864;2023-12-07T08:34:46;101476.75;;;0.61;100.00
48204;BME280;33994;50.998;5.864;2023-12-07T08:37:49;101485.19;;;0.57;100.00
48204;BME280;33994;50.998;5.864;2023-12-07T08:40:52;101479.94;;;0.55;100.00
48204;BME280;33994;50.998;5.864;2023-12-07T08:43:55;101476.47;;;0.53;100.00
48204;BME280;33994;50.998;5.864;2023-12-07T08:46:58;101472.81;;;0.48;100.00
48204;BME280;33994;50.998;5.864;2023-12-07T08:50:04;101489.06;;;0.45;100.00
48204;BME280;33994;50.998;5.864;2023-12-07T08:53:07;101496.00;;;0.48;100.00
48204;BME280;33994;50.998;5.864;2023-12-07T08:56:10;101486.53;;;0.47;100.00
48204;BME280;33994;50.998;5.864;2023-12-07T08:59:14;101489.97;;;0.48;100.00
48204;BME280;33994;50.998;5.864;2023-12-07T09:02:18;101490.84;;;0.48;100.00
48204;BME280;33994;50.998;5.864;2023-12-07T09:05:25;101490.84;;;0.48;100.00
48204;BME280;33994;50.998;5.864;2023-12-07T09:08:28;101481.41;;;0.49;100.00
48204;BME280;33994;50.998;5.864;2023-12-07T09:11:31;101489.13;;;0.49;100.00
48204;BME280;33994;50.998;5.864;2023-12-07T09:14:35;101485.69;;;0.48;100.00
48204;BME280;33994;50.998;5.864;2023-12-07T09:17:39;101487.50;;;0.51;100.00
48204;BME280;33994;50.998;5.864;2023-12-07T09:20:44;101487.56;;;0.52;100.00
48204;BME280;33994;50.998;5.864;2023-12-07T09:23:47;101496.22;;;0.54;100.00
48204;BME280;33994;50.998;5.864;2023-12-07T09:26:51;101500.53;;;0.55;100.00
48204;BME280;33994;50.998;5.864;2023-12-07T09:29:55;101500.50;;;0.54;100.00
48204;BME280;33994;50.998;5.864;2023-12-07T09:33:00;101489.41;;;0.56;100.00
48204;BME280;33994;50.998;5.864;2023-12-07T09:36:05;101478.44;;;0.60;100.00
48204;BME280;33994;50.998;5.864;2023-12-07T09:39:09;101465.72;;;0.65;100.00
48204;BME280;33994;50.998;5.864;2023-12-07T09:42:16;101456.34;;;0.67;100.00
48204;BME280;33994;50.998;5.864;2023-12-07T09:45:20;101449.69;;;0.72;100.00
48204;BME280;33994;50.998;5.864;2023-12-07T09:48:23;101446.38;;;0.76;100.00
48204;BME280;33994;50.998;5.864;2023-12-07T09:51:30;101446.47;;;0.79;100.00
48204;BME280;33994;50.998;5.864;2023-12-07T09:54:34;101431.91;;;0.80;100.00
48204;BME280;33994;50.998;5.864;2023-12-07T09:57:39;101426.81;;;0.81;100.00
48204;BME280;33994;50.998;5.864;2023-12-07T10:00:43;101426.91;;;0.84;100.00
48204;BME280;33994;50.998;5.864;2023-12-07T10:03:46;101413.25;;;0.87;100.00
48204;BME280;33994;50.998;5.864;2023-12-07T10:06:50;101410.91;;;0.93;100.00
48204;BME280;33994;50.998;5.864;2023-12-07T10:09:53;101414.41;;;0.95;100.00
48204;BME280;33994;50.998;5.864;2023-12-07T10:12:59;101407.56;;;0.95;100.00
48204;BME280;33994;50.998;5.864;2023-12-07T10:16:08;101405.84;;;0.96;100.00
48204;BME280;33994;50.998;5.864;2023-12-07T10:19:13;101403.38;;;0.99;100.00
48204;BME280;33994;50.998;5.864;2023-12-07T10:22:19;101397.50;;;1.03;100.00
48204;BME280;33994;50.998;5.864;2023-12-07T10:25:24;101388.19;;;1.07;100.00
48204;BME280;33994;50.998;5.864;2023-12-07T10:28:27;101383.09;;;1.10;100.00
48204;BME280;33994;50.998;5.864;2023-12-07T10:31:30;101372.13;;;1.15;100.00
48204;BME280;33994;50.998;5.864;2023-12-07T10:34:36;101369.81;;;1.23;100.00
48204;BME280;33994;50.998;5.864;2023-12-07T10:37:41;101363.19;;;1.31;100.00
48204;BME280;33994;50.998;5.864;2023-12-07T10:40:46;101361.69;;;1.38;100.00
48204;BME280;33994;50.998;5.864;2023-12-07T10:43:52;101364.44;;;1.44;100.00
48204;BME280;33994;50.998;5.864;2023-12-07T10:46:57;101348.31;;;1.51;100.00
48204;BME280;33994;50.998;5.864;2023-12-07T10:50:02;101350.25;;;1.58;100.00
48204;BME280;33994;50.998;5.864;2023-12-07T10:53:19;101354.75;;;1.64;100.00
48204;BME280;33994;50.998;5.864;2023-12-07T10:56:29;101346.25;;;1.68;100.00
48204;BME280;33994;50.998;5.864;2023-12-07T10:59:37;101349.88;;;1.75;100.00
48204;BME280;33994;50.998;5.864;2023-12-07T11:02:42;101340.50;;;1.77;100.00
48204;BME280;33994;50.998;5.864;2023-12-07T11:05:46;101329.44;;;1.81;100.00
48204;BME280;33994;50.998;5.864;2023-12-07T11:08:55;101325.28;;;1.86;100.00
48204;BME280;33994;50.998;5.864;2023-12-07T11:12:04;101326.31;;;1.92;100.00
48204;BME280;33994;50.998;5.864;2023-12-07T11:15:10;101324.72;;;1.96;100.00
48204;BME280;33994;50.998;5.864;2023-12-07T11:18:13;101320.53;;;2.01;100.00
48204;BME280;33994;50.998;5.864;2023-12-07T11:21:16;101313.91;;;2.09;100.00
48204;BME280;33994;50.998;5.864;2023-12-07T11:24:23;101303.75;;;2.15;100.00
48204;BME280;33994;50.998;5.864;2023-12-07T11:27:29;101303.03;;;2.21;100.00
48204;BME280;33994;50.998;5.864;2023-12-07T11:30:36;101304.97;;;2.28;100.00
48204;BME280;33994;50.998;5.864;2023-12-07T11:33:39;101293.91;;;2.34;100.00
48204;BME280;33994;50.998;5.864;2023-12-07T11:36:45;101283.75;;;2.40;100.00
48204;BME280;33994;50.998;5.864;2023-12-07T11:39:50;101289.91;;;2.47;100.00
48204;BME280;33994;50.998;5.864;2023-12-07T11:42:53;101278.03;;;2.52;100.00
48204;BME280;33994;50.998;5.864;2023-12-07T11:45:56;101271.28;;;2.58;99.81
48204;BME280;33994;50.998;5.864;2023-12-07T11:49:00;101266.28;;;2.64;99.76
48204;BME280;33994;50.998;5.864;2023-12-07T11:52:14;101263.88;;;2.72;99.39
48204;BME280;33994;50.998;5.864;2023-12-07T11:55:19;101253.66;;;2.77;98.92
48204;BME280;33994;50.998;5.864;2023-12-07T11:58:22;101246.06;;;2.83;98.04
48204;BME280;33994;50.998;5.864;2023-12-07T12:01:28;101247.88;;;2.87;97.90
48204;BME280;33994;50.998;5.864;2023-12-07T12:04:31;101233.34;;;2.92;97.61
48204;BME280;33994;50.998;5.864;2023-12-07T12:07:35;101218.78;;;2.96;97.06
48204;BME280;33994;50.998;5.864;2023-12-07T12:10:40;101221.47;;;3.00;97.18
48204;BME280;33994;50.998;5.864;2023-12-07T12:13:45;101226.69;;;3.02;97.22
48204;BME280;33994;50.998;5.864;2023-12-07T12:16:49;101224.19;;;3.06;97.39
48204;BME280;33994;50.998;5.864;2023-12-07T12:19:52;101214.78;;;3.10;97.35
48204;BME280;33994;50.998;5.864;2023-12-07T12:22:57;101208.84;;;3.14;97.29
48204;BME280;33994;50.998;5.864;2023-12-07T12:26:03;101198.59;;;3.17;97.08
48204;BME280;33994;50.998;5.864;2023-12-07T12:29:07;101192.66;;;3.23;96.36
48204;BME280;33994;50.998;5.864;2023-12-07T12:32:11;101184.13;;;3.27;94.30
48204;BME280;33994;50.998;5.864;2023-12-07T12:35:14;101173.84;;;3.30;93.31
48204;BME280;33994;50.998;5.864;2023-12-07T12:38:17;101167.91;;;3.34;92.78
48204;BME280;33994;50.998;5.864;2023-12-07T12:41:25;101150.56;;;3.30;93.63
48204;BME280;33994;50.998;5.864;2023-12-07T12:44:29;101145.34;;;3.27;94.47
48204;BME280;33994;50.998;5.864;2023-12-07T12:47:33;101142.75;;;3.27;95.26
48204;BME280;33994;50.998;5.864;2023-12-07T12:50:38;101137.56;;;3.24;95.79
48204;BME280;33994;50.998;5.864;2023-12-07T12:53:44;101137.44;;;3.19;95.95
48204;BME280;33994;50.998;5.864;2023-12-07T12:56:51;101137.41;;;3.18;96.21
48204;BME280;33994;50.998;5.864;2023-12-07T12:59:54;101137.34;;;3.14;96.20
48204;BME280;33994;50.998;5.864;2023-12-07T13:02:58;101141.66;;;3.15;96.47
48204;BME280;33994;50.998;5.864;2023-12-07T13:06:01;101141.63;;;3.12;96.25
48204;BME280;33994;50.998;5.864;2023-12-07T13:09:04;101137.28;;;3.11;96.38
48204;BME280;33994;50.998;5.864;2023-12-07T13:12:09;101120.88;;;3.09;96.43
48204;BME280;33994;50.998;5.864;2023-12-07T13:15:13;101119.97;;;3.07;96.57
48204;BME280;33994;50.998;5.864;2023-12-07T13:18:16;101109.63;;;3.07;96.39
48204;BME280;33994;50.998;5.864;2023-12-07T13:21:19;101102.66;;;3.03;96.40
48204;BME280;33994;50.998;5.864;2023-12-07T13:24:22;101100.94;;;3.02;96.49
48204;BME280;33994;50.998;5.864;2023-12-07T13:27:28;101089.72;;;3.02;96.42
48204;BME280;33994;50.998;5.864;2023-12-07T13:30:32;101072.50;;;3.02;96.71
48204;BME280;33994;50.998;5.864;2023-12-07T13:33:36;101066.41;;;3.00;96.60
48204;BME280;33994;50.998;5.864;2023-12-07T13:36:41;101074.16;;;2.99;96.50
48204;BME280;33994;50.998;5.864;2023-12-07T13:39:44;101062.09;;;2.99;96.64
48204;BME280;33994;50.998;5.864;2023-12-07T13:42:49;101063.81;;;2.99;96.81
48204;BME280;33994;50.998;5.864;2023-12-07T13:45:53;101065.53;;;2.98;96.95
48204;BME280;33994;50.998;5.864;2023-12-07T13:48:56;101061.25;;;3.00;96.82
48204;BME280;33994;50.998;5.864;2023-12-07T13:52:00;101055.22;;;3.00;97.09
48204;BME280;33994;50.998;5.864;2023-12-07T13:55:04;101048.31;;;2.99;97.31
48204;BME280;33994;50.998;5.864;2023-12-07T13:58:10;101038.78;;;2.96;97.40
48204;BME280;33994;50.998;5.864;2023-12-07T14:01:14;101042.22;;;2.95;97.81
48204;BME280;33994;50.998;5.864;2023-12-07T14:04:18;101027.56;;;2.94;97.85
48204;BME280;33994;50.998;5.864;2023-12-07T14:07:24;101019.75;;;2.91;98.17
48204;BME280;33994;50.998;5.864;2023-12-07T14:10:28;101012.84;;;2.90;98.27
48204;BME280;33994;50.998;5.864;2023-12-07T14:13:32;101014.50;;;2.86;98.38
48204;BME280;33994;50.998;5.864;2023-12-07T14:16:36;101005.00;;;2.85;98.23
48204;BME280;33994;50.998;5.864;2023-12-07T14:19:40;100992.03;;;2.84;98.24
48204;BME280;33994;50.998;5.864;2023-12-07T14:22:44;100979.09;;;2.82;98.32
48204;BME280;33994;50.998;5.864;2023-12-07T14:25:47;100961.84;;;2.80;98.50
48204;BME280;33994;50.998;5.864;2023-12-07T14:28:54;100965.22;;;2.77;98.49
48204;BME280;33994;50.998;5.864;2023-12-07T14:31:58;100948.78;;;2.74;98.23
48204;BME280;33994;50.998;5.864;2023-12-07T14:35:02;100944.41;;;2.70;98.32
48204;BME280;33994;50.998;5.864;2023-12-07T14:38:06;100938.34;;;2.67;98.23
48204;BME280;33994;50.998;5.864;2023-12-07T14:41:09;100931.41;;;2.63;98.00
48204;BME280;33994;50.998;5.864;2023-12-07T14:44:14;100935.63;;;2.60;97.76
48204;BME280;33994;50.998;5.864;2023-12-07T14:47:17;100944.22;;;2.59;97.41
48204;BME280;33994;50.998;5.864;2023-12-07T14:50:21;100937.31;;;2.58;97.37
48204;BME280;33994;50.998;5.864;2023-12-07T14:53:24;100939.00;;;2.56;97.25
48204;BME280;33994;50.998;5.864;2023-12-07T14:56:28;100934.63;;;2.52;97.01
48204;BME280;33994;50.998;5.864;2023-12-07T14:59:34;100931.16;;;2.51;96.77
48204;BME280;33994;50.998;5.864;2023-12-07T15:02:37;100920.78;;;2.48;96.70
48204;BME280;33994;50.998;5.864;2023-12-07T15:05:40;100922.44;;;2.46;96.66
48204;BME280;33994;50.998;5.864;2023-12-07T15:08:44;100920.72;;;2.45;96.62
48204;BME280;33994;50.998;5.864;2023-12-07T15:11:47;100925.00;;;2.45;96.66
48204;BME280;33994;50.998;5.864;2023-12-07T15:14:57;100922.34;;;2.40;96.69
48204;BME280;33994;50.998;5.864;2023-12-07T15:18:00;100928.38;;;2.40;96.72
48204;BME280;33994;50.998;5.864;2023-12-07T15:21:04;100925.75;;;2.39;96.69
48204;BME280;33994;50.998;5.864;2023-12-07T15:24:07;100933.44;;;2.36;96.67
48204;BME280;33994;50.998;5.864;2023-12-07T15:27:10;100936.84;;;2.35;96.31
48204;BME280;33994;50.998;5.864;2023-12-07T15:30:16;100928.22;;;2.34;96.19
48204;BME280;33994;50.998;5.864;2023-12-07T15:33:21;100925.56;;;2.30;96.18
48204;BME280;33994;50.998;5.864;2023-12-07T15:36:24;100911.75;;;2.28;96.05
48204;BME280;33994;50.998;5.864;2023-12-07T15:39:28;100905.69;;;2.26;96.29
48204;BME280;33994;50.998;5.864;2023-12-07T15:42:31;100911.63;;;2.22;96.25
48204;BME280;33994;50.998;5.864;2023-12-07T15:45:36;100905.56;;;2.20;96.13
48204;BME280;33994;50.998;5.864;2023-12-07T15:48:39;100899.47;;;2.16;96.52
48204;BME280;33994;50.998;5.864;2023-12-07T15:51:43;100888.19;;;2.11;96.41
48204;BME280;33994;50.998;5.864;2023-12-07T15:54:46;100879.53;;;2.09;96.75
48204;BME280;33994;50.998;5.864;2023-12-07T15:57:49;100874.34;;;2.06;96.84
48204;BME280;33994;50.998;5.864;2023-12-07T16:00:53;100869.91;;;2.00;96.98
48204;BME280;33994;50.998;5.864;2023-12-07T16:03:58;100868.94;;;1.95;97.03
48204;BME280;33994;50.998;5.864;2023-12-07T16:07:03;100868.91;;;1.93;96.87